sensor_id;sensor_type;location;lat;lon;timestamp;P1;P2;P0
65973;PMS5003;52729;54.906;73.316;2022-08-05T00:02:25;11.00;9.00;5.00
65973;PMS5003;52729;54.906;73.316;2022-08-05T00:05:30;10.00;9.00;4.00
65973;PMS5003;52729;54.906;73.316;2022-08-05T00:08:31;11.00;9.25;4.00
65973;PMS5003;52729;54.906;73.316;2022-08-05T00:11:36;14.00;11.50;5.00
65973;PMS5003;52729;54.906;73.316;2022-08-05T00:14:38;13.00;12.00;4.25
65973;PMS5003;52729;54.906;73.316;2022-08-05T00:17:39;10.00;8.50;4.25
65973;PMS5003;52729;54.906;73.316;2022-08-05T00:20:40;9.25;8.50;4.00
65973;PMS5003;52729;54.906;73.316;2022-08-05T00:23:43;10.25;7.50;3.50
65973;PMS5003;52729;54.906;73.316;2022-08-05T00:26:51;11.00;8.75;4.00
65973;PMS5003;52729;54.906;73.316;2022-08-05T00:29:52;13.50;10.00;6.00
65973;PMS5003;52729;54.906;73.316;2022-08-05T00:32:58;15.00;11.50;6.00
65973;PMS5003;52729;54.906;73.316;2022-08-05T00:35:59;15.00;12.00;6.00
65973;PMS5003;52729;54.906;73.316;2022-08-05T00:39:06;15.50;12.25;6.00
65973;PMS5003;52729;54.906;73.316;2022-08-05T00:42:09;14.50;9.75;4.50
65973;PMS5003;52729;54.906;73.316;2022-08-05T00:45:20;17.75;13.00;5.00
65973;PMS5003;52729;54.906;73.316;2022-08-05T00:48:31;17.00;14.00;5.00
65973;PMS5003;52729;54.906;73.316;2022-08-05T00:51:33;13.25;8.75;3.50
65973;PMS5003;52729;54.906;73.316;2022-08-05T00:54:34;13.00;9.25;4.25
65973;PMS5003;52729;54.906;73.316;2022-08-05T00:57:35;14.00;9.50;6.00
65973;PMS5003;52729;54.906;73.316;2022-08-05T01:00:41;14.50;12.00;5.50
65973;PMS5003;52729;54.906;73.316;2022-08-05T01:03:43;16.00;13.00;5.00
65973;PMS5003;52729;54.906;73.316;2022-08-05T01:06:49;13.00;11.00;4.50
65973;PMS5003;52729;54.906;73.316;2022-08-05T01:09:50;14.50;13.50;6.00
65973;PMS5003;52729;54.906;73.316;2022-08-05T01:12:57;17.00;14.00;6.00
65973;PMS5003;52729;54.906;73.316;2022-08-05T01:16:01;14.25;10.50;5.00
65973;PMS5003;52729;54.906;73.316;2022-08-05T01:29:06;19.00;16.25;8.50
65973;PMS5003;52729;54.906;73.316;2022-08-05T01:32:08;19.00;17.25;8.00
65973;PMS5003;52729;54.906;73.316;2022-08-05T01:35:15;17.75;15.25;6.25
65973;PMS5003;52729;54.906;73.316;2022-08-05T01:38:17;18.25;15.00;8.00
65973;PMS5003;52729;54.906;73.316;2022-08-05T01:41:20;11.75;10.00;6.00
65973;PMS5003;52729;54.906;73.316;2022-08-05T01:44:22;12.75;10.75;6.00
65973;PMS5003;52729;54.906;73.316;2022-08-05T01:47:30;15.00;13.00;6.50
65973;PMS5003;52729;54.906;73.316;2022-08-05T01:50:35;30.25;27.00;15.50
65973;PMS5003;52729;54.906;73.316;2022-08-05T01:53:37;23.50;21.00;10.75
65973;PMS5003;52729;54.906;73.316;2022-08-05T01:56:40;18.50;15.50;6.00
65973;PMS5003;52729;54.906;73.316;2022-08-05T01:59:42;16.00;14.00;6.25
65973;PMS5003;52729;54.906;73.316;2022-08-05T02:02:53;14.00;13.75;4.00
65973;PMS5003;52729;54.906;73.316;2022-08-05T02:05:54;14.75;12.25;4.25
65973;PMS5003;52729;54.906;73.316;2022-08-05T02:08:55;17.25;13.25;7.00
65973;PMS5003;52729;54.906;73.316;2022-08-05T02:15:18;16.00;13.00;5.00
65973;PMS5003;52729;54.906;73.316;2022-08-05T02:18:24;15.00;13.75;5.25
65973;PMS5003;52729;54.906;73.316;2022-08-05T02:21:38;12.25;11.25;4.75
65973;PMS5003;52729;54.906;73.316;2022-08-05T02:24:40;9.50;7.50;4.00
65973;PMS5003;52729;54.906;73.316;2022-08-05T02:27:45;12.00;9.00;5.00
65973;PMS5003;52729;54.906;73.316;2022-08-05T02:30:49;11.00;10.00;4.00
65973;PMS5003;52729;54.906;73.316;2022-08-05T02:33:57;9.50;9.25;5.00
65973;PMS5003;52729;54.906;73.316;2022-08-05T02:37:09;8.00;7.00;4.25
65973;PMS5003;52729;54.906;73.316;2022-08-05T02:40:13;8.00;8.00;3.00
65973;PMS5003;52729;54.906;73.316;2022-08-05T02:43:16;6.50;6.00;2.00
65973;PMS5003;52729;54.906;73.316;2022-08-05T02:46:28;7.50;7.50;3.00
65973;PMS5003;52729;54.906;73.316;2022-08-05T02:49:30;7.00;6.00;3.00
65973;PMS5003;52729;54.906;73.316;2022-08-05T02:52:32;6.00;5.50;2.25
65973;PMS5003;52729;54.906;73.316;2022-08-05T02:55:42;6.00;6.00;2.00
65973;PMS5003;52729;54.906;73.316;2022-08-05T02:58:43;3.00;3.00;1.00
65973;PMS5003;52729;54.906;73.316;2022-08-05T03:01:55;6.00;5.00;1.00
65973;PMS5003;52729;54.906;73.316;2022-08-05T03:05:00;2.75;2.75;0.00
65973;PMS5003;52729;54.906;73.316;2022-08-05T03:08:01;4.00;4.00;0.00
65973;PMS5003;52729;54.906;73.316;2022-08-05T03:11:03;3.00;3.00;0.00
65973;PMS5003;52729;54.906;73.316;2022-08-05T03:14:06;2.50;2.50;0.00
65973;PMS5003;52729;54.906;73.316;2022-08-05T03:17:07;2.00;2.00;0.00
65973;PMS5003;52729;54.906;73.316;2022-08-05T03:20:12;1.50;1.00;0.00
65973;PMS5003;52729;54.906;73.316;2022-08-05T03:23:13;2.00;2.00;0.00
65973;PMS5003;52729;54.906;73.316;2022-08-05T03:26:14;3.00;3.00;0.00
65973;PMS5003;52729;54.906;73.316;2022-08-05T03:29:16;2.00;2.00;0.00
65973;PMS5003;52729;54.906;73.316;2022-08-05T03:32:17;2.00;2.00;1.00
65973;PMS5003;52729;54.906;73.316;2022-08-05T03:35:22;2.25;2.00;0.00
65973;PMS5003;52729;54.906;73.316;2022-08-05T03:38:23;3.00;3.00;0.00
65973;PMS5003;52729;54.906;73.316;2022-08-05T03:41:25;3.00;3.00;0.00
65973;PMS5003;52729;54.906;73.316;2022-08-05T03:44:26;5.00;4.00;0.00
65973;PMS5003;52729;54.906;73.316;2022-08-05T03:47:27;1.00;1.00;0.00
65973;PMS5003;52729;54.906;73.316;2022-08-05T03:50:33;3.50;3.00;0.00
65973;PMS5003;52729;54.906;73.316;2022-08-05T03:53:54;3.25;3.00;0.00
65973;PMS5003;52729;54.906;73.316;2022-08-05T03:56:57;3.00;3.00;0.00
65973;PMS5003;52729;54.906;73.316;2022-08-05T04:00:00;4.00;3.50;0.00
65973;PMS5003;52729;54.906;73.316;2022-08-05T04:03:13;3.00;3.00;0.00
65973;PMS5003;52729;54.906;73.316;2022-08-05T04:06:20;4.25;4.00;0.00
65973;PMS5003;52729;54.906;73.316;2022-08-05T04:09:21;4.00;4.00;0.00
65973;PMS5003;52729;54.906;73.316;2022-08-05T04:12:28;3.00;2.00;0.00
65973;PMS5003;52729;54.906;73.316;2022-08-05T04:15:35;1.75;1.75;0.00
65973;PMS5003;52729;54.906;73.316;2022-08-05T04:18:36;7.50;7.25;4.25
65973;PMS5003;52729;54.906;73.316;2022-08-05T04:21:44;5.50;4.50;1.50
65973;PMS5003;52729;54.906;73.316;2022-08-05T04:24:45;1.00;1.00;0.00
65973;PMS5003;52729;54.906;73.316;2022-08-05T04:27:47;0.00;0.00;0.00
65973;PMS5003;52729;54.906;73.316;2022-08-05T04:30:49;1.25;1.00;0.00
65973;PMS5003;52729;54.906;73.316;2022-08-05T04:33:50;2.00;0.25;0.00
65973;PMS5003;52729;54.906;73.316;2022-08-05T04:36:51;2.00;1.00;0.00
65973;PMS5003;52729;54.906;73.316;2022-08-05T04:39:52;2.25;1.00;0.00
65973;PMS5003;52729;54.906;73.316;2022-08-05T04:43:03;1.00;0.00;0.00
65973;PMS5003;52729;54.906;73.316;2022-08-05T04:46:04;1.00;1.00;0.00
65973;PMS5003;52729;54.906;73.316;2022-08-05T04:49:14;1.00;1.00;0.00
65973;PMS5003;52729;54.906;73.316;2022-08-05T04:52:15;1.00;1.00;0.00
65973;PMS5003;52729;54.906;73.316;2022-08-05T04:55:16;0.00;0.00;0.00
65973;PMS5003;52729;54.906;73.316;2022-08-05T04:58:17;0.00;0.00;0.00
65973;PMS5003;52729;54.906;73.316;2022-08-05T05:01:19;0.00;0.00;0.00
65973;PMS5003;52729;54.906;73.316;2022-08-05T05:04:20;0.00;0.00;0.00
65973;PMS5003;52729;54.906;73.316;2022-08-05T05:07:21;0.00;0.00;0.00
65973;PMS5003;52729;54.906;73.316;2022-08-05T05:10:31;0.00;0.00;0.00
65973;PMS5003;52729;54.906;73.316;2022-08-05T05:13:33;0.25;0.00;0.00
65973;PMS5003;52729;54.906;73.316;2022-08-05T05:16:34;1.50;0.00;0.00
65973;PMS5003;52729;54.906;73.316;2022-08-05T05:19:45;2.00;0.00;0.00
65973;PMS5003;52729;54.906;73.316;2022-08-05T05:22:46;0.75;0.00;0.00
65973;PMS5003;52729;54.906;73.316;2022-08-05T05:25:47;1.00;1.00;0.00
65973;PMS5003;52729;54.906;73.316;2022-08-05T05:28:48;0.00;0.00;0.00
65973;PMS5003;52729;54.906;73.316;2022-08-05T05:31:50;0.50;0.00;0.00
65973;PMS5003;52729;54.906;73.316;2022-08-05T05:34:53;0.00;0.00;0.00
65973;PMS5003;52729;54.906;73.316;2022-08-05T05:37:56;0.00;0.00;0.00
65973;PMS5003;52729;54.906;73.316;2022-08-05T05:41:09;0.50;0.00;0.00
65973;PMS5003;52729;54.906;73.316;2022-08-05T05:44:10;1.50;1.25;0.00
65973;PMS5003;52729;54.906;73.316;2022-08-05T05:47:12;1.00;0.00;0.00
65973;PMS5003;52729;54.906;73.316;2022-08-05T05:50:14;1.00;1.00;0.00
65973;PMS5003;52729;54.906;73.316;2022-08-05T05:53:25;2.00;1.00;0.00
65973;PMS5003;52729;54.906;73.316;2022-08-05T05:56:27;1.00;1.00;0.00
65973;PMS5003;52729;54.906;73.316;2022-08-05T05:59:28;0.25;0.00;0.00
65973;PMS5003;52729;54.906;73.316;2022-08-05T06:02:29;0.00;0.00;0.00
65973;PMS5003;52729;54.906;73.316;2022-08-05T06:05:41;0.00;0.00;0.00
65973;PMS5003;52729;54.906;73.316;2022-08-05T06:08:42;0.00;0.00;0.00
65973;PMS5003;52729;54.906;73.316;2022-08-05T06:11:44;0.50;0.00;0.00
65973;PMS5003;52729;54.906;73.316;2022-08-05T06:14:45;1.00;0.00;0.00
65973;PMS5003;52729;54.906;73.316;2022-08-05T06:17:47;18.50;16.50;10.00
65973;PMS5003;52729;54.906;73.316;2022-08-05T06:20:58;11.75;9.25;3.25
65973;PMS5003;52729;54.906;73.316;2022-08-05T06:24:00;4.75;3.00;1.00
65973;PMS5003;52729;54.906;73.316;2022-08-05T06:27:01;3.00;2.00;0.00
65973;PMS5003;52729;54.906;73.316;2022-08-05T06:30:09;1.50;1.00;0.00
65973;PMS5003;52729;54.906;73.316;2022-08-05T06:33:20;1.50;1.50;0.00
65973;PMS5003;52729;54.906;73.316;2022-08-05T06:36:22;1.00;1.00;0.00
65973;PMS5003;52729;54.906;73.316;2022-08-05T06:39:23;0.50;0.50;0.00
65973;PMS5003;52729;54.906;73.316;2022-08-05T06:42:29;0.00;0.00;0.00
65973;PMS5003;52729;54.906;73.316;2022-08-05T06:45:41;1.00;0.00;0.00
65973;PMS5003;52729;54.906;73.316;2022-08-05T06:48:43;2.00;2.00;0.00
65973;PMS5003;52729;54.906;73.316;2022-08-05T06:51:48;0.00;0.00;0.00
65973;PMS5003;52729;54.906;73.316;2022-08-05T06:54:54;0.00;0.00;0.00
65973;PMS5003;52729;54.906;73.316;2022-08-05T06:57:55;0.00;0.00;0.00
65973;PMS5003;52729;54.906;73.316;2022-08-05T07:00:57;0.00;0.00;0.00
65973;PMS5003;52729;54.906;73.316;2022-08-05T07:03:59;0.00;0.00;0.00
65973;PMS5003;52729;54.906;73.316;2022-08-05T07:07:01;0.00;0.00;0.00
65973;PMS5003;52729;54.906;73.316;2022-08-05T07:10:02;0.00;0.00;0.00
65973;PMS5003;52729;54.906;73.316;2022-08-05T07:13:14;0.00;0.00;0.00
65973;PMS5003;52729;54.906;73.316;2022-08-05T07:16:34;0.00;0.00;0.00
65973;PMS5003;52729;54.906;73.316;2022-08-05T07:19:50;0.25;0.00;0.00
65973;PMS5003;52729;54.906;73.316;2022-08-05T07:22:58;0.00;0.00;0.00
65973;PMS5003;52729;54.906;73.316;2022-08-05T07:26:00;0.00;0.00;0.00
65973;PMS5003;52729;54.906;73.316;2022-08-05T07:29:01;3.00;2.25;0.00
65973;PMS5003;52729;54.906;73.316;2022-08-05T07:32:02;4.00;3.00;0.00
65973;PMS5003;52729;54.906;73.316;2022-08-05T07:35:13;1.00;1.00;0.00
65973;PMS5003;52729;54.906;73.316;2022-08-05T07:38:16;0.50;0.50;0.00
65973;PMS5003;52729;54.906;73.316;2022-08-05T07:41:26;0.00;0.00;0.00
65973;PMS5003;52729;54.906;73.316;2022-08-05T07:44:36;0.00;0.00;0.00
65973;PMS5003;52729;54.906;73.316;2022-08-05T07:47:37;0.00;0.00;0.00
65973;PMS5003;52729;54.906;73.316;2022-08-05T07:50:39;0.00;0.00;0.00
65973;PMS5003;52729;54.906;73.316;2022-08-05T07:53:45;0.00;0.00;0.00
65973;PMS5003;52729;54.906;73.316;2022-08-05T07:56:51;0.75;0.00;0.00
65973;PMS5003;52729;54.906;73.316;2022-08-05T07:59:57;1.00;1.00;0.00
65973;PMS5003;52729;54.906;73.316;2022-08-05T08:02:58;0.00;0.00;0.00
65973;PMS5003;52729;54.906;73.316;2022-08-05T08:06:00;1.00;0.00;0.00
65973;PMS5003;52729;54.906;73.316;2022-08-05T08:09:10;0.00;0.00;0.00
65973;PMS5003;52729;54.906;73.316;2022-08-05T08:12:12;2.00;1.00;0.00
65973;PMS5003;52729;54.906;73.316;2022-08-05T08:15:15;1.75;0.00;0.00
65973;PMS5003;52729;54.906;73.316;2022-08-05T08:18:21;1.00;1.00;0.00
65973;PMS5003;52729;54.906;73.316;2022-08-05T08:21:23;0.00;0.00;0.00
65973;PMS5003;52729;54.906;73.316;2022-08-05T08:24:28;0.00;0.00;0.00
65973;PMS5003;52729;54.906;73.316;2022-08-05T08:27:30;0.00;0.00;0.00
65973;PMS5003;52729;54.906;73.316;2022-08-05T08:30:34;0.00;0.00;0.00
65973;PMS5003;52729;54.906;73.316;2022-08-05T08:33:38;0.00;0.00;0.00
65973;PMS5003;52729;54.906;73.316;2022-08-05T08:36:50;0.00;0.00;0.00
65973;PMS5003;52729;54.906;73.316;2022-08-05T08:39:51;0.00;0.00;0.00
65973;PMS5003;52729;54.906;73.316;2022-08-05T08:42:53;1.00;0.00;0.00
65973;PMS5003;52729;54.906;73.316;2022-08-05T08:45:54;1.00;1.00;0.00
65973;PMS5003;52729;54.906;73.316;2022-08-05T08:49:02;4.75;4.50;0.00
65973;PMS5003;52729;54.906;73.316;2022-08-05T08:52:12;1.75;1.75;0.00
65973;PMS5003;52729;54.906;73.316;2022-08-05T08:55:18;0.00;0.00;0.00
65973;PMS5003;52729;54.906;73.316;2022-08-05T08:58:24;0.00;0.00;0.00
65973;PMS5003;52729;54.906;73.316;2022-08-05T09:01:25;0.00;0.00;0.00
65973;PMS5003;52729;54.906;73.316;2022-08-05T09:04:37;0.00;0.00;0.00
65973;PMS5003;52729;54.906;73.316;2022-08-05T09:07:47;0.00;0.00;0.00
65973;PMS5003;52729;54.906;73.316;2022-08-05T09:10:58;0.00;0.00;0.00
65973;PMS5003;52729;54.906;73.316;2022-08-05T09:14:00;0.50;0.50;0.00
65973;PMS5003;52729;54.906;73.316;2022-08-05T09:17:05;0.00;0.00;0.00
65973;PMS5003;52729;54.906;73.316;2022-08-05T09:20:06;0.00;0.00;0.00
65973;PMS5003;52729;54.906;73.316;2022-08-05T09:26:12;0.00;0.00;0.00
65973;PMS5003;52729;54.906;73.316;2022-08-05T09:29:16;0.00;0.00;0.00
65973;PMS5003;52729;54.906;73.316;2022-08-05T09:32:20;0.00;0.00;0.00
65973;PMS5003;52729;54.906;73.316;2022-08-05T09:35:33;0.00;0.00;0.00
65973;PMS5003;52729;54.906;73.316;2022-08-05T09:38:34;0.00;0.00;0.00
65973;PMS5003;52729;54.906;73.316;2022-08-05T09:41:54;0.00;0.00;0.00
65973;PMS5003;52729;54.906;73.316;2022-08-05T09:44:56;0.00;0.00;0.00
65973;PMS5003;52729;54.906;73.316;2022-08-05T09:48:18;0.50;0.00;0.00
65973;PMS5003;52729;54.906;73.316;2022-08-05T09:51:32;2.25;0.00;0.00
65973;PMS5003;52729;54.906;73.316;2022-08-05T09:54:35;0.00;0.00;0.00
65973;PMS5003;52729;54.906;73.316;2022-08-05T10:00:38;2.00;1.00;0.00
65973;PMS5003;52729;54.906;73.316;2022-08-05T10:03:41;1.75;0.75;0.00
65973;PMS5003;52729;54.906;73.316;2022-08-05T10:07:04;1.00;0.00;0.00
65973;PMS5003;52729;54.906;73.316;2022-08-05T10:10:37;0.00;0.00;0.00
65973;PMS5003;52729;54.906;73.316;2022-08-05T10:13:38;0.00;0.00;0.00
65973;PMS5003;52729;54.906;73.316;2022-08-05T10:16:40;0.00;0.00;0.00
65973;PMS5003;52729;54.906;73.316;2022-08-05T10:19:45;0.00;0.00;0.00
65973;PMS5003;52729;54.906;73.316;2022-08-05T10:22:47;0.00;0.00;0.00
65973;PMS5003;52729;54.906;73.316;2022-08-05T10:25:48;0.00;0.00;0.00
65973;PMS5003;52729;54.906;73.316;2022-08-05T10:28:49;1.00;1.00;0.00
65973;PMS5003;52729;54.906;73.316;2022-08-05T10:31:50;0.00;0.00;0.00
65973;PMS5003;52729;54.906;73.316;2022-08-05T10:34:52;0.00;0.00;0.00
65973;PMS5003;52729;54.906;73.316;2022-08-05T10:37:53;0.00;0.00;0.00
65973;PMS5003;52729;54.906;73.316;2022-08-05T10:44:11;0.00;0.00;0.00
65973;PMS5003;52729;54.906;73.316;2022-08-05T10:47:13;0.00;0.00;0.00
65973;PMS5003;52729;54.906;73.316;2022-08-05T10:50:16;0.00;0.00;0.00
65973;PMS5003;52729;54.906;73.316;2022-08-05T10:54:09;0.00;0.00;0.00
65973;PMS5003;52729;54.906;73.316;2022-08-05T10:56:48;1.00;1.00;0.00
65973;PMS5003;52729;54.906;73.316;2022-08-05T11:00:05;0.00;0.00;0.00
65973;PMS5003;52729;54.906;73.316;2022-08-05T11:03:08;0.00;0.00;0.00
65973;PMS5003;52729;54.906;73.316;2022-08-05T11:06:12;0.00;0.00;0.00
65973;PMS5003;52729;54.906;73.316;2022-08-05T11:09:18;0.00;0.00;0.00
65973;PMS5003;52729;54.906;73.316;2022-08-05T11:15:27;0.00;0.00;0.00
65973;PMS5003;52729;54.906;73.316;2022-08-05T11:18:32;0.00;0.00;0.00
65973;PMS5003;52729;54.906;73.316;2022-08-05T11:21:39;0.00;0.00;0.00
65973;PMS5003;52729;54.906;73.316;2022-08-05T11:24:42;2.00;0.75;0.00
65973;PMS5003;52729;54.906;73.316;2022-08-05T11:27:43;0.00;0.00;0.00
65973;PMS5003;52729;54.906;73.316;2022-08-05T11:34:01;1.00;1.00;0.00
65973;PMS5003;52729;54.906;73.316;2022-08-05T11:37:03;0.00;0.00;0.00
65973;PMS5003;52729;54.906;73.316;2022-08-05T11:40:04;0.00;0.00;0.00
65973;PMS5003;52729;54.906;73.316;2022-08-05T11:43:06;0.00;0.00;0.00
65973;PMS5003;52729;54.906;73.316;2022-08-05T11:46:07;0.00;0.00;0.00
65973;PMS5003;52729;54.906;73.316;2022-08-05T11:49:12;0.00;0.00;0.00
65973;PMS5003;52729;54.906;73.316;2022-08-05T11:52:14;0.00;0.00;0.00
65973;PMS5003;52729;54.906;73.316;2022-08-05T11:55:28;0.00;0.00;0.00
65973;PMS5003;52729;54.906;73.316;2022-08-05T11:58:29;0.00;0.00;0.00
65973;PMS5003;52729;54.906;73.316;2022-08-05T12:01:31;0.00;0.00;0.00
65973;PMS5003;52729;54.906;73.316;2022-08-05T12:05:05;1.00;0.00;0.00
65973;PMS5003;52729;54.906;73.316;2022-08-05T12:08:03;0.00;0.00;0.00
65973;PMS5003;52729;54.906;73.316;2022-08-05T12:11:05;0.00;0.00;0.00
65973;PMS5003;52729;54.906;73.316;2022-08-05T12:14:12;1.00;1.00;0.00
65973;PMS5003;52729;54.906;73.316;2022-08-05T12:17:14;0.00;0.00;0.00
65973;PMS5003;52729;54.906;73.316;2022-08-05T12:20:15;0.00;0.00;0.00
65973;PMS5003;52729;54.906;73.316;2022-08-05T12:23:16;0.00;0.00;0.00
65973;PMS5003;52729;54.906;73.316;2022-08-05T12:26:18;0.00;0.00;0.00
65973;PMS5003;52729;54.906;73.316;2022-08-05T12:29:20;0.00;0.00;0.00
65973;PMS5003;52729;54.906;73.316;2022-08-05T12:32:31;0.00;0.00;0.00
65973;PMS5003;52729;54.906;73.316;2022-08-05T12:35:33;0.00;0.00;0.00
65973;PMS5003;52729;54.906;73.316;2022-08-05T12:38:38;0.00;0.00;0.00
65973;PMS5003;52729;54.906;73.316;2022-08-05T12:41:40;0.00;0.00;0.00
65973;PMS5003;52729;54.906;73.316;2022-08-05T12:44:41;0.00;0.00;0.00
65973;PMS5003;52729;54.906;73.316;2022-08-05T12:47:44;0.00;0.00;0.00
65973;PMS5003;52729;54.906;73.316;2022-08-05T12:54:04;2.00;0.00;0.00
65973;PMS5003;52729;54.906;73.316;2022-08-05T12:57:08;2.00;0.00;0.00
65973;PMS5003;52729;54.906;73.316;2022-08-05T13:00:20;2.50;0.00;0.00
65973;PMS5003;52729;54.906;73.316;2022-08-05T13:03:38;1.00;1.00;0.00
65973;PMS5003;52729;54.906;73.316;2022-08-05T13:06:45;5.75;4.75;2.75
65973;PMS5003;52729;54.906;73.316;2022-08-05T13:09:52;2.00;2.00;1.00
65973;PMS5003;52729;54.906;73.316;2022-08-05T13:12:54;1.00;1.00;0.00
65973;PMS5003;52729;54.906;73.316;2022-08-05T13:15:55;1.00;0.00;0.00
65973;PMS5003;52729;54.906;73.316;2022-08-05T13:18:56;0.00;0.00;0.00
65973;PMS5003;52729;54.906;73.316;2022-08-05T13:22:07;0.00;0.00;0.00
65973;PMS5003;52729;54.906;73.316;2022-08-05T13:25:09;1.00;1.00;0.00
65973;PMS5003;52729;54.906;73.316;2022-08-05T13:28:11;1.50;1.50;0.00
65973;PMS5003;52729;54.906;73.316;2022-08-05T13:31:12;3.00;3.00;0.00
65973;PMS5003;52729;54.906;73.316;2022-08-05T13:34:18;4.00;3.25;0.00
65973;PMS5003;52729;54.906;73.316;2022-08-05T13:37:19;4.75;4.00;2.00
65973;PMS5003;52729;54.906;73.316;2022-08-05T13:40:25;3.00;3.00;1.00
65973;PMS5003;52729;54.906;73.316;2022-08-05T13:43:26;2.00;2.00;1.00
65973;PMS5003;52729;54.906;73.316;2022-08-05T13:46:27;2.00;1.00;0.00
65973;PMS5003;52729;54.906;73.316;2022-08-05T13:49:38;2.00;2.00;0.00
65973;PMS5003;52729;54.906;73.316;2022-08-05T13:52:44;1.25;1.25;0.00
65973;PMS5003;52729;54.906;73.316;2022-08-05T13:55:55;3.00;3.00;0.00
65973;PMS5003;52729;54.906;73.316;2022-08-05T13:59:07;2.00;2.00;0.00
65973;PMS5003;52729;54.906;73.316;2022-08-05T14:02:10;3.50;3.50;0.50
65973;PMS5003;52729;54.906;73.316;2022-08-05T14:05:11;1.50;1.50;0.00
65973;PMS5003;52729;54.906;73.316;2022-08-05T14:08:15;3.00;3.00;0.00
65973;PMS5003;52729;54.906;73.316;2022-08-05T14:11:17;3.00;1.25;0.00
65973;PMS5003;52729;54.906;73.316;2022-08-05T14:14:27;4.00;4.00;0.00
65973;PMS5003;52729;54.906;73.316;2022-08-05T14:17:28;3.25;3.00;2.00
65973;PMS5003;52729;54.906;73.316;2022-08-05T14:20:39;3.50;3.00;2.00
65973;PMS5003;52729;54.906;73.316;2022-08-05T14:23:50;2.00;2.00;0.00
65973;PMS5003;52729;54.906;73.316;2022-08-05T14:26:51;1.00;1.00;0.00
65973;PMS5003;52729;54.906;73.316;2022-08-05T14:29:53;1.00;1.00;0.00
65973;PMS5003;52729;54.906;73.316;2022-08-05T14:33:05;3.75;2.75;0.00
65973;PMS5003;52729;54.906;73.316;2022-08-05T14:36:09;5.50;5.00;1.00
65973;PMS5003;52729;54.906;73.316;2022-08-05T14:39:10;7.75;6.75;2.25
65973;PMS5003;52729;54.906;73.316;2022-08-05T14:42:11;5.00;5.00;1.00
65973;PMS5003;52729;54.906;73.316;2022-08-05T14:45:12;8.00;5.00;2.75
65973;PMS5003;52729;54.906;73.316;2022-08-05T14:48:13;6.25;6.00;3.00
65973;PMS5003;52729;54.906;73.316;2022-08-05T14:51:15;7.00;6.75;3.00
65973;PMS5003;52729;54.906;73.316;2022-08-05T14:54:16;10.50;8.00;5.25
65973;PMS5003;52729;54.906;73.316;2022-08-05T14:57:17;10.00;9.25;5.00
65973;PMS5003;52729;54.906;73.316;2022-08-05T15:00:19;11.00;10.00;3.50
65973;PMS5003;52729;54.906;73.316;2022-08-05T15:03:21;16.75;15.75;8.00
65973;PMS5003;52729;54.906;73.316;2022-08-05T15:06:22;18.00;17.00;6.00
65973;PMS5003;52729;54.906;73.316;2022-08-05T15:09:23;18.25;16.50;8.00
65973;PMS5003;52729;54.906;73.316;2022-08-05T15:12:35;21.75;20.00;11.25
65973;PMS5003;52729;54.906;73.316;2022-08-05T15:15:36;21.75;20.50;12.00
65973;PMS5003;52729;54.906;73.316;2022-08-05T15:18:37;20.50;19.75;10.75
65973;PMS5003;52729;54.906;73.316;2022-08-05T15:21:38;27.00;24.75;13.50
65973;PMS5003;52729;54.906;73.316;2022-08-05T15:24:39;26.50;23.50;15.00
65973;PMS5003;52729;54.906;73.316;2022-08-05T15:27:41;27.00;24.00;15.00
65973;PMS5003;52729;54.906;73.316;2022-08-05T15:30:42;29.00;26.25;15.75
65973;PMS5003;52729;54.906;73.316;2022-08-05T15:33:43;27.00;25.00;17.00
65973;PMS5003;52729;54.906;73.316;2022-08-05T15:36:45;27.25;25.25;16.00
65973;PMS5003;52729;54.906;73.316;2022-08-05T15:39:51;26.25;25.50;17.00
65973;PMS5003;52729;54.906;73.316;2022-08-05T15:42:52;27.50;26.50;15.50
65973;PMS5003;52729;54.906;73.316;2022-08-05T15:46:03;34.50;29.75;19.50
65973;PMS5003;52729;54.906;73.316;2022-08-05T15:49:05;41.50;32.75;20.75
65973;PMS5003;52729;54.906;73.316;2022-08-05T15:52:06;41.50;35.00;22.00
65973;PMS5003;52729;54.906;73.316;2022-08-05T15:55:08;43.00;37.00;22.00
65973;PMS5003;52729;54.906;73.316;2022-08-05T15:58:19;46.25;37.00;24.00
65973;PMS5003;52729;54.906;73.316;2022-08-05T16:01:20;48.00;40.00;25.00
65973;PMS5003;52729;54.906;73.316;2022-08-05T16:04:32;49.00;40.25;26.00
65973;PMS5003;52729;54.906;73.316;2022-08-05T16:07:33;45.25;38.00;24.00
65973;PMS5003;52729;54.906;73.316;2022-08-05T16:10:34;45.50;37.75;24.00
65973;PMS5003;52729;54.906;73.316;2022-08-05T16:13:35;44.50;35.75;22.50
65973;PMS5003;52729;54.906;73.316;2022-08-05T16:16:42;45.00;37.00;23.00
65973;PMS5003;52729;54.906;73.316;2022-08-05T16:19:43;51.25;41.50;25.50
65973;PMS5003;52729;54.906;73.316;2022-08-05T16:22:44;58.00;46.00;29.50
65973;PMS5003;52729;54.906;73.316;2022-08-05T16:25:45;65.50;50.75;31.50
65973;PMS5003;52729;54.906;73.316;2022-08-05T16:28:46;58.00;45.00;28.50
65973;PMS5003;52729;54.906;73.316;2022-08-05T16:31:54;64.00;50.50;32.00
65973;PMS5003;52729;54.906;73.316;2022-08-05T16:34:56;65.00;52.25;32.50
65973;PMS5003;52729;54.906;73.316;2022-08-05T16:37:57;63.25;50.00;31.50
65973;PMS5003;52729;54.906;73.316;2022-08-05T16:40:59;62.00;50.00;30.50
65973;PMS5003;52729;54.906;73.316;2022-08-05T16:44:02;62.00;49.00;31.50
65973;PMS5003;52729;54.906;73.316;2022-08-05T16:47:03;65.00;51.00;32.00
65973;PMS5003;52729;54.906;73.316;2022-08-05T16:50:05;61.00;48.75;32.00
65973;PMS5003;52729;54.906;73.316;2022-08-05T16:53:07;60.00;47.75;30.00
65973;PMS5003;52729;54.906;73.316;2022-08-05T16:56:19;61.75;49.00;31.00
65973;PMS5003;52729;54.906;73.316;2022-08-05T16:59:25;61.00;47.50;31.00
65973;PMS5003;52729;54.906;73.316;2022-08-05T17:02:34;62.00;50.00;31.00
65973;PMS5003;52729;54.906;73.316;2022-08-05T17:05:35;60.50;49.00;31.00
65973;PMS5003;52729;54.906;73.316;2022-08-05T17:08:36;59.75;47.75;31.00
65973;PMS5003;52729;54.906;73.316;2022-08-05T17:11:37;58.50;45.50;29.00
65973;PMS5003;52729;54.906;73.316;2022-08-05T17:14:58;57.50;46.00;28.00
65973;PMS5003;52729;54.906;73.316;2022-08-05T17:18:00;57.00;45.00;29.00
65973;PMS5003;52729;54.906;73.316;2022-08-05T17:21:13;50.25;40.50;25.50
65973;PMS5003;52729;54.906;73.316;2022-08-05T17:24:14;51.25;41.00;25.00
65973;PMS5003;52729;54.906;73.316;2022-08-05T17:27:26;57.50;46.75;29.00
65973;PMS5003;52729;54.906;73.316;2022-08-05T17:30:28;53.25;42.50;26.50
65973;PMS5003;52729;54.906;73.316;2022-08-05T17:33:32;62.00;48.25;31.00
65973;PMS5003;52729;54.906;73.316;2022-08-05T17:36:39;56.50;44.50;29.25
65973;PMS5003;52729;54.906;73.316;2022-08-05T17:39:40;59.00;46.50;30.00
65973;PMS5003;52729;54.906;73.316;2022-08-05T17:42:41;58.00;45.75;30.25
65973;PMS5003;52729;54.906;73.316;2022-08-05T17:45:48;53.50;42.75;27.75
65973;PMS5003;52729;54.906;73.316;2022-08-05T17:48:49;61.25;47.25;31.00
65973;PMS5003;52729;54.906;73.316;2022-08-05T17:51:55;61.00;47.00;31.00
65973;PMS5003;52729;54.906;73.316;2022-08-05T17:55:06;53.50;43.75;27.50
65973;PMS5003;52729;54.906;73.316;2022-08-05T17:58:10;52.75;42.50;27.50
65973;PMS5003;52729;54.906;73.316;2022-08-05T18:01:11;50.00;40.50;26.00
65973;PMS5003;52729;54.906;73.316;2022-08-05T18:04:13;50.50;41.00;26.00
65973;PMS5003;52729;54.906;73.316;2022-08-05T18:07:14;58.75;45.75;29.25